Time;durP1;ratioP1;P1;durP2;ratioP2;P2;SDS_P1;SDS_P2;PMS_P1;PMS_P2;Temp;Humidity;BMP_temperature;BMP_pressure;BME280_temperature;BME280_humidity;BME280_pressure;Samples;Min_cycle;Max_cycle;Signal;HPM_P1;HPM_P2
2022/04/12 00:01:16;;;;;;;6.03;4.90;;;9.90;80.30;;;;;;10166448;29;20250;-72
2022/04/12 00:06:17;;;;;;;5.30;4.47;;;9.80;80.90;;;;;;10179030;28;20231;-70
2022/04/12 00:11:17;;;;;;;6.23;4.37;;;9.70;81.30;;;;;;10167045;29;20243;-70
2022/04/12 00:16:18;;;;;;;8.70;4.83;;;9.70;81.70;;;;;;10166505;29;20228;-70
2022/04/12 00:21:19;;;;;;;5.07;4.23;;;9.70;82.00;;;;;;10173615;29;20235;-69
2022/04/12 00:26:19;;;;;;;5.17;4.20;;;9.60;82.70;;;;;;10166035;29;20236;-71
2022/04/12 00:31:20;;;;;;;7.23;4.77;;;9.50;83.20;;;;;;10166887;28;20240;-71
2022/04/12 00:36:21;;;;;;;6.53;4.43;;;9.50;83.80;;;;;;10166510;28;20236;-69
2022/04/12 00:41:21;;;;;;;7.10;4.60;;;9.50;84.50;;;;;;10166259;29;20286;-69
2022/04/12 00:46:22;;;;;;;5.33;4.43;;;9.50;85.10;;;;;;10167306;29;20731;-70
2022/04/12 00:51:27;;;;;;;5.37;4.07;;;9.50;85.40;;;;;;10165576;28;20224;-68
2022/04/12 00:56:28;;;;;;;5.80;4.23;;;9.50;85.50;;;;;;10166011;29;20235;-70
2022/04/12 01:01:29;;;;;;;5.97;4.50;;;9.50;85.80;;;;;;10165241;29;20278;-69
2022/04/12 01:06:30;;;;;;;6.93;5.03;;;9.50;86.20;;;;;;10165418;29;20223;-69
2022/04/12 01:11:34;;;;;;;7.67;4.70;;;9.50;86.60;;;;;;10163514;28;20582;-69
2022/04/12 01:16:35;;;;;;;6.73;4.97;;;9.60;86.80;;;;;;10165245;28;20235;-69
2022/04/12 01:21:51;;;;;;;6.87;4.40;;;9.60;87.30;;;;;;10171432;29;20699;-69
2022/04/12 01:26:51;;;;;;;8.47;4.23;;;9.50;87.60;;;;;;10164139;29;20239;-68
2022/04/12 01:31:55;;;;;;;6.80;4.20;;;9.60;88.30;;;;;;10164376;28;20397;-69
2022/04/12 01:36:55;;;;;;;6.80;4.30;;;9.50;88.50;;;;;;10157856;28;20240;-69
2022/04/12 01:41:56;;;;;;;5.80;4.33;;;9.50;89.00;;;;;;10163940;29;20235;-69
2022/04/12 01:46:57;;;;;;;8.07;4.70;;;9.50;89.30;;;;;;10165346;28;20385;-69
2022/04/12 01:52:02;;;;;;;6.37;4.23;;;9.50;89.30;;;;;;10166810;29;20231;-69
2022/04/12 01:57:03;;;;;;;6.97;4.60;;;9.50;89.80;;;;;;10164123;28;20443;-69
2022/04/12 02:02:07;;;;;;;7.03;4.40;;;9.50;90.20;;;;;;10170676;29;20231;-68
2022/04/12 02:07:07;;;;;;;6.13;4.43;;;9.40;90.40;;;;;;10161434;28;20227;-69
2022/04/12 02:12:08;;;;;;;7.00;4.80;;;9.40;90.70;;;;;;10169168;28;20252;-69
2022/04/12 02:17:09;;;;;;;4.60;4.10;;;9.40;91.00;;;;;;10168771;28;20231;-69
2022/04/12 02:22:11;;;;;;;5.53;4.53;;;9.40;91.40;;;;;;10169581;29;20788;-68
2022/04/12 02:27:12;;;;;;;6.63;4.63;;;9.40;92.00;;;;;;10161166;28;20241;-69
2022/04/12 02:32:12;;;;;;;7.77;4.50;;;9.30;91.90;;;;;;10169963;29;20239;-69
2022/04/12 02:37:13;;;;;;;5.47;4.20;;;9.30;92.10;;;;;;10170242;29;20235;-69
2022/04/12 02:42:14;;;;;;;7.57;4.70;;;9.30;92.50;;;;;;10169855;28;20228;-70
2022/04/12 02:47:14;;;;;;;7.13;4.23;;;9.20;92.80;;;;;;10163187;29;20291;-69
2022/04/12 02:52:15;;;;;;;7.73;4.53;;;9.20;93.00;;;;;;10168714;28;20250;-69
2022/04/12 02:57:15;;;;;;;9.93;5.67;;;9.20;93.50;;;;;;10170374;29;20286;-69
2022/04/12 03:02:16;;;;;;;8.77;5.43;;;9.10;93.60;;;;;;10169247;29;20232;-68
2022/04/12 03:07:17;;;;;;;8.63;6.10;;;9.10;93.90;;;;;;10168572;28;20228;-70
2022/04/12 03:12:17;;;;;;;11.23;6.27;;;9.10;94.30;;;;;;10168686;29;20232;-70
2022/04/12 03:17:18;;;;;;;9.37;5.90;;;9.00;94.60;;;;;;10180182;29;20224;-69
2022/04/12 03:22:22;;;;;;;11.67;5.90;;;9.00;94.90;;;;;;10174346;29;20365;-75
2022/04/12 03:27:22;;;;;;;6.47;4.90;;;9.00;95.10;;;;;;10168072;28;20314;-70
2022/04/12 03:32:23;;;;;;;8.40;4.70;;;9.00;95.40;;;;;;10167645;28;20330;-69
2022/04/12 03:37:24;;;;;;;5.67;4.20;;;9.00;95.70;;;;;;10168416;28;20985;-70
2022/04/12 03:42:25;;;;;;;6.60;4.80;;;8.90;96.20;;;;;;10167899;28;20231;-69
2022/04/12 03:47:25;;;;;;;6.03;4.60;;;8.90;96.70;;;;;;10167591;28;20235;-70
2022/04/12 03:52:26;;;;;;;6.17;4.17;;;8.80;97.10;;;;;;10161583;28;20231;-68
2022/04/12 03:57:26;;;;;;;7.47;5.00;;;8.80;97.60;;;;;;10163419;28;20262;-69
2022/04/12 04:02:27;;;;;;;8.07;4.90;;;8.70;98.00;;;;;;10166811;28;20269;-71
2022/04/12 04:07:30;;;;;;;6.63;4.70;;;8.70;98.50;;;;;;10167009;29;20226;-70
2022/04/12 04:12:31;;;;;;;5.13;4.37;;;8.70;98.80;;;;;;10165040;28;20235;-68
2022/04/12 04:17:32;;;;;;;6.37;4.57;;;8.70;99.20;;;;;;10163642;28;20223;-69
2022/04/12 04:22:32;;;;;;;5.23;4.50;;;8.70;99.70;;;;;;10148710;28;20235;-69
2022/04/12 04:27:34;;;;;;;7.63;4.50;;;8.70;99.90;;;;;;10165104;28;20235;-68
2022/04/12 04:32:35;;;;;;;6.00;4.80;;;8.70;99.90;;;;;;10163828;29;20242;-68
2022/04/12 04:37:47;;;;;;;8.17;5.43;;;8.60;99.90;;;;;;10163226;29;20228;-69
2022/04/12 04:42:51;;;;;;;9.03;5.70;;;8.60;99.90;;;;;;10163267;28;20235;-69
2022/04/12 04:47:56;;;;;;;8.13;5.27;;;8.60;99.90;;;;;;10165012;29;20232;-68
2022/04/12 04:53:02;;;;;;;7.00;4.93;;;8.60;99.90;;;;;;10163342;29;20235;-68
2022/04/12 04:58:03;;;;;;;6.80;4.73;;;8.60;99.90;;;;;;10157257;29;20722;-69
2022/04/12 05:03:05;;;;;;;6.47;4.87;;;8.70;99.90;;;;;;10163244;28;20231;-70
2022/04/12 05:08:05;;;;;;;10.40;4.83;;;8.70;99.90;;;;;;10164038;29;20258;-69
2022/04/12 05:13:06;;;;;;;6.63;4.67;;;8.80;99.90;;;;;;10161101;28;20239;-68
2022/04/12 05:18:06;;;;;;;9.30;5.20;;;8.90;99.90;;;;;;10160331;29;20232;-70
2022/04/12 05:23:07;;;;;;;9.37;4.47;;;9.10;99.90;;;;;;10163079;28;20228;-71
2022/04/12 05:28:07;;;;;;;5.50;4.30;;;9.30;99.90;;;;;;10175027;28;20235;-69
2022/04/12 05:33:08;;;;;;;6.53;4.33;;;9.40;99.90;;;;;;10162462;28;20699;-70
2022/04/12 05:38:09;;;;;;;7.00;4.90;;;9.50;99.90;;;;;;10154509;29;20251;-70
2022/04/12 05:43:09;;;;;;;7.30;4.63;;;9.50;99.90;;;;;;10162449;29;20266;-71
2022/04/12 05:48:10;;;;;;;6.20;4.53;;;9.60;99.90;;;;;;10161707;28;20224;-69
2022/04/12 05:53:10;;;;;;;7.20;4.80;;;9.70;99.90;;;;;;10174833;28;20235;-70
2022/04/12 05:58:11;;;;;;;9.90;5.23;;;9.90;99.90;;;;;;10163284;28;20223;-70
2022/04/12 06:03:11;;;;;;;6.97;4.40;;;10.60;99.10;;;;;;10162052;29;20232;-70
2022/04/12 06:08:12;;;;;;;8.77;4.90;;;12.00;96.10;;;;;;10161208;28;20585;-70
2022/04/12 06:13:13;;;;;;;5.93;4.40;;;13.60;91.10;;;;;;10152762;28;20755;-71
2022/04/12 06:18:13;;;;;;;6.40;4.50;;;15.50;82.60;;;;;;10161448;29;20235;-71
2022/04/12 06:23:14;;;;;;;6.23;4.73;;;16.70;69.30;;;;;;10160299;28;20248;-71
2022/04/12 06:28:15;;;;;;;7.07;4.53;;;15.40;70.80;;;;;;10160317;29;20287;-71
2022/04/12 06:33:15;;;;;;;6.73;5.40;;;13.80;76.30;;;;;;10161614;28;20228;-71
2022/04/12 06:38:16;;;;;;;9.67;5.10;;;13.10;79.90;;;;;;10172395;28;20256;-71
2022/04/12 06:43:17;;;;;;;6.60;5.17;;;12.70;82.40;;;;;;10167479;28;20327;-71
2022/04/12 06:48:17;;;;;;;6.17;4.83;;;12.70;82.70;;;;;;10167462;28;20220;-70
2022/04/12 06:53:18;;;;;;;10.07;4.67;;;12.80;82.80;;;;;;10168297;28;20233;-71
2022/04/12 06:58:19;;;;;;;7.37;4.30;;;13.10;81.90;;;;;;10166855;28;20220;-71
2022/04/12 07:03:21;;;;;;;5.63;4.40;;;13.30;81.30;;;;;;10173882;29;20254;-71
2022/04/12 07:08:23;;;;;;;6.27;4.40;;;13.60;80.30;;;;;;10166091;29;20220;-70
2022/04/12 07:13:24;;;;;;;6.23;4.70;;;14.00;78.60;;;;;;10166985;29;20261;-70
2022/04/12 07:18:25;;;;;;;4.70;4.20;;;14.20;78.50;;;;;;10167391;28;20438;-71
2022/04/12 07:23:25;;;;;;;6.00;4.17;;;14.40;77.20;;;;;;10173306;28;20228;-72
2022/04/12 07:28:26;;;;;;;8.50;4.93;;;14.40;78.10;;;;;;10167080;28;20719;-71
2022/04/12 07:33:26;;;;;;;5.23;4.53;;;14.60;76.80;;;;;;10166292;28;20225;-71
2022/04/12 07:38:27;;;;;;;7.20;4.40;;;15.10;76.40;;;;;;10165121;28;20217;-72
2022/04/12 07:43:27;;;;;;;9.07;4.67;;;17.60;66.60;;;;;;10165528;28;20227;-71
2022/04/12 07:48:28;;;;;;;6.33;4.20;;;19.00;59.20;;;;;;10166037;29;20322;-71
2022/04/12 07:53:29;;;;;;;7.33;4.27;;;18.80;58.40;;;;;;10165879;28;20235;-71
2022/04/12 07:58:29;;;;;;;6.67;4.20;;;20.30;55.60;;;;;;10164989;28;20216;-71
2022/04/12 08:03:30;;;;;;;5.87;4.27;;;21.40;51.40;;;;;;10164546;28;20290;-72
2022/04/12 08:08:32;;;;;;;6.23;4.20;;;22.40;48.90;;;;;;10165008;28;20320;-70
2022/04/12 08:16:37;;;;;;;6.83;4.47;;;22.60;48.20;;;;;;10463803;28;21060;-71
2022/04/12 08:21:39;;;;;;;5.90;4.30;;;25.30;43.00;;;;;;10461210;28;20224;-72
2022/04/12 08:26:40;;;;;;;5.83;4.23;;;25.70;39.20;;;;;;10466783;28;20218;-72
2022/04/12 08:31:41;;;;;;;4.90;3.80;;;24.80;40.30;;;;;;10467137;28;20230;-72
2022/04/12 08:36:41;;;;;;;4.60;3.87;;;24.40;40.90;;;;;;10462617;28;20238;-72
2022/04/12 08:41:43;;;;;;;6.47;4.47;;;24.50;40.90;;;;;;10464531;28;20280;-72
2022/04/12 08:46:47;;;;;;;6.03;3.90;;;24.70;39.20;;;;;;10462205;28;20222;-71
2022/04/12 08:51:48;;;;;;;5.67;4.33;;;24.50;39.80;;;;;;10466145;28;20249;-72
2022/04/12 08:56:50;;;;;;;5.63;4.17;;;24.10;40.30;;;;;;10459424;28;20243;-71
2022/04/12 09:01:52;;;;;;;6.77;4.30;;;23.60;41.10;;;;;;10466441;28;20219;-72
2022/04/12 09:06:57;;;;;;;5.63;4.00;;;23.10;41.90;;;;;;10460366;28;20210;-72
2022/04/12 09:12:06;;;;;;;7.53;4.27;;;24.90;39.50;;;;;;10469873;28;20587;-71
2022/04/12 09:17:09;;;;;;;5.00;3.80;;;25.60;39.10;;;;;;10459418;28;20230;-73
2022/04/12 09:22:26;;;;;;;3.80;3.37;;;25.30;39.30;;;;;;10458165;28;20222;-72
2022/04/12 09:27:33;;;;;;;5.43;3.63;;;26.90;37.40;;;;;;10434009;28;20222;-72
2022/04/12 09:32:45;;;;;;;5.70;3.60;;;28.20;34.50;;;;;;10432442;28;20219;-71
2022/04/12 09:37:46;;;;;;;5.03;3.73;;;28.10;34.40;;;;;;10437707;28;20212;-72
2022/04/12 09:42:54;;;;;;;4.17;3.40;;;28.20;33.60;;;;;;10432027;28;20763;-71
2022/04/12 09:47:57;;;;;;;5.23;3.40;;;28.40;34.20;;;;;;10437400;28;20243;-72
2022/04/12 09:52:59;;;;;;;5.40;3.43;;;30.10;31.80;;;;;;10436556;28;20598;-71
2022/04/12 09:58:02;;;;;;;5.13;3.47;;;30.80;31.00;;;;;;10430489;28;20217;-72
2022/04/12 10:03:08;;;;;;;6.47;3.43;;;29.40;31.30;;;;;;10445336;28;20698;-71
2022/04/12 10:08:13;;;;;;;3.70;3.20;;;28.30;33.00;;;;;;10430840;28;20224;-72
2022/04/12 10:13:15;;;;;;;3.70;3.03;;;28.70;33.10;;;;;;10442785;28;20219;-72
2022/04/12 10:18:20;;;;;;;3.77;3.33;;;29.50;32.20;;;;;;10431603;28;20274;-71
2022/04/12 10:23:26;;;;;;;3.87;2.93;;;29.90;31.10;;;;;;10433922;28;20221;-72
2022/04/12 10:28:29;;;;;;;4.53;2.83;;;30.10;32.40;;;;;;10431536;28;20308;-72
2022/04/12 10:33:30;;;;;;;4.10;2.83;;;30.70;31.00;;;;;;10432155;28;20275;-72
2022/04/12 10:38:39;;;;;;;2.73;2.53;;;32.60;31.10;;;;;;10431966;28;20216;-71
2022/04/12 10:43:40;;;;;;;5.17;2.80;;;31.50;30.40;;;;;;10428291;28;20233;-72
2022/04/12 10:48:41;;;;;;;4.93;3.10;;;30.60;30.80;;;;;;10431243;28;20286;-71
2022/04/12 10:53:42;;;;;;;3.70;2.60;;;31.60;30.30;;;;;;10436246;28;20992;-72
2022/04/12 10:58:44;;;;;;;4.83;2.57;;;31.30;29.90;;;;;;10434395;28;20912;-71
2022/04/12 11:03:45;;;;;;;3.67;2.30;;;30.80;30.80;;;;;;10429207;28;20225;-72
2022/04/12 11:08:49;;;;;;;2.87;2.07;;;30.20;31.20;;;;;;10442098;28;20208;-72
2022/04/12 11:13:49;;;;;;;4.93;1.83;;;28.40;34.10;;;;;;10427216;28;20621;-71
2022/04/12 11:18:57;;;;;;;3.23;1.80;;;26.00;37.60;;;;;;10436163;28;20219;-71
2022/04/12 11:24:01;;;;;;;2.23;1.80;;;23.90;42.20;;;;;;10434848;28;20892;-72
2022/04/12 11:29:02;;;;;;;3.63;1.70;;;23.10;44.30;;;;;;10426946;28;20266;-72
2022/04/12 11:34:05;;;;;;;2.60;1.57;;;23.10;45.10;;;;;;10426751;28;20700;-71
2022/04/12 11:39:09;;;;;;;1.37;1.27;;;23.00;43.80;;;;;;10434076;28;20216;-71
2022/04/12 11:44:09;;;;;;;3.27;1.40;;;22.70;44.90;;;;;;10422729;28;20219;-71
2022/04/12 11:49:12;;;;;;;3.70;1.40;;;22.50;44.40;;;;;;10435262;28;20212;-72
2022/04/12 11:54:20;;;;;;;3.13;1.13;;;22.40;44.20;;;;;;10433351;28;20220;-71
2022/04/12 11:59:20;;;;;;;2.10;1.43;;;22.50;44.00;;;;;;10430426;28;20240;-71
2022/04/12 12:04:21;;;;;;;2.40;1.30;;;22.60;44.30;;;;;;10427438;28;20247;-72
2022/04/12 12:09:22;;;;;;;4.30;1.20;;;22.50;44.00;;;;;;10431196;28;20220;-71
2022/04/12 12:14:22;;;;;;;5.07;1.60;;;22.70;44.00;;;;;;10435249;28;20228;-71
2022/04/12 12:19:23;;;;;;;3.47;1.30;;;22.70;44.40;;;;;;10437157;28;20204;-71
2022/04/12 12:24:24;;;;;;;1.73;1.50;;;22.70;44.50;;;;;;10427281;28;20868;-71
2022/04/12 12:29:25;;;;;;;3.27;1.77;;;22.70;44.30;;;;;;10429580;28;20251;-72
2022/04/12 12:34:27;;;;;;;9.57;2.90;;;22.80;44.60;;;;;;10425162;28;20220;-72
2022/04/12 12:39:35;;;;;;;1.70;1.27;;;23.20;43.90;;;;;;10429821;28;20223;-71
2022/04/12 12:44:39;;;;;;;4.63;1.30;;;23.20;44.30;;;;;;10424746;28;20223;-71
2022/04/12 12:49:41;;;;;;;4.13;1.40;;;23.50;44.30;;;;;;10427428;28;20221;-72
2022/04/12 12:54:57;;;;;;;2.70;1.20;;;23.80;43.80;;;;;;10429074;28;20272;-71
2022/04/12 13:00:04;;;;;;;4.83;1.30;;;23.60;44.40;;;;;;10426857;28;20369;-72
2022/04/12 13:05:10;;;;;;;3.77;1.50;;;23.70;44.50;;;;;;10438775;28;20311;-72
2022/04/12 13:10:16;;;;;;;5.73;1.70;;;23.60;44.40;;;;;;10433992;28;20212;-71
2022/04/12 13:15:17;;;;;;;2.67;1.40;;;23.70;44.50;;;;;;10431238;28;20224;-71
2022/04/12 13:20:20;;;;;;;3.43;1.20;;;23.70;44.90;;;;;;10449902;28;20575;-71
2022/04/12 13:25:20;;;;;;;1.97;1.20;;;23.90;44.40;;;;;;10437345;28;20203;-72
2022/04/12 13:30:22;;;;;;;3.67;1.40;;;24.30;43.80;;;;;;10432627;28;20278;-71
2022/04/12 13:35:23;;;;;;;3.67;1.93;;;24.50;42.90;;;;;;10435527;28;20216;-71
2022/04/12 13:40:24;;;;;;;1.80;1.23;;;24.30;42.50;;;;;;10436257;28;21261;-71
2022/04/12 13:45:24;;;;;;;4.57;1.27;;;24.20;43.70;;;;;;10441857;28;20216;-72
2022/04/12 13:50:25;;;;;;;1.87;1.33;;;24.30;44.60;;;;;;10442496;28;20216;-72
2022/04/12 13:55:25;;;;;;;3.43;1.27;;;24.30;44.00;;;;;;10435566;28;20226;-72
2022/04/12 14:00:26;;;;;;;3.80;1.37;;;23.70;45.00;;;;;;10441741;28;20235;-72
2022/04/12 14:05:26;;;;;;;4.03;1.40;;;23.20;46.20;;;;;;10440528;28;20265;-72
2022/04/12 14:10:28;;;;;;;1.93;1.23;;;23.20;48.10;;;;;;10431827;28;20212;-71
2022/04/12 14:15:28;;;;;;;3.80;1.43;;;23.70;46.60;;;;;;10456979;28;21323;-72
2022/04/12 14:20:29;;;;;;;2.53;1.50;;;23.40;46.40;;;;;;10445499;28;20211;-72
2022/04/12 14:25:30;;;;;;;3.97;1.57;;;23.20;47.40;;;;;;10434166;28;20215;-71
2022/04/12 14:30:31;;;;;;;1.80;1.30;;;23.20;47.50;;;;;;10431157;28;20604;-72
2022/04/12 14:35:35;;;;;;;1.73;1.40;;;23.20;47.20;;;;;;10432271;28;20703;-72
2022/04/12 14:40:35;;;;;;;2.13;1.30;;;23.20;48.00;;;;;;10433281;28;20238;-71
2022/04/12 14:45:36;;;;;;;2.70;1.53;;;23.20;48.40;;;;;;10432018;28;20303;-72
2022/04/12 14:50:36;;;;;;;3.93;1.70;;;23.20;48.00;;;;;;10432958;28;20725;-72
2022/04/12 14:55:37;;;;;;;4.30;1.60;;;23.10;48.20;;;;;;10435797;28;20222;-73
2022/04/12 15:00:39;;;;;;;4.00;1.40;;;23.10;48.40;;;;;;10427866;28;20222;-73
2022/04/12 15:05:39;;;;;;;3.27;1.63;;;23.10;48.60;;;;;;10431983;28;20224;-73
2022/04/12 15:10:41;;;;;;;6.57;1.77;;;23.20;48.10;;;;;;10435639;28;20304;-72
2022/04/12 15:15:46;;;;;;;4.30;2.20;;;23.10;48.60;;;;;;10441295;28;20737;-73
2022/04/12 15:20:46;;;;;;;4.63;1.77;;;22.90;49.20;;;;;;10427856;28;20228;-71
2022/04/12 15:25:47;;;;;;;4.90;2.23;;;22.90;49.70;;;;;;10433679;28;20226;-71
2022/04/12 15:30:47;;;;;;;5.60;2.47;;;22.70;50.10;;;;;;10429297;28;20224;-72
2022/04/12 15:35:48;;;;;;;4.30;2.50;;;22.60;49.90;;;;;;10432863;28;20238;-72
2022/04/12 15:40:49;;;;;;;4.73;2.70;;;22.50;49.80;;;;;;10434100;28;20275;-72
2022/04/12 15:45:49;;;;;;;4.13;2.40;;;22.40;49.90;;;;;;10442235;28;20691;-71
2022/04/12 15:50:50;;;;;;;4.43;2.40;;;22.30;50.20;;;;;;10425442;28;20263;-71
2022/04/12 15:55:51;;;;;;;4.63;2.00;;;22.30;50.40;;;;;;10434000;28;20730;-72
2022/04/12 16:00:52;;;;;;;2.50;1.90;;;22.10;49.90;;;;;;10427676;28;20307;-71
2022/04/12 16:05:53;;;;;;;4.67;2.17;;;22.10;50.40;;;;;;10433853;28;20303;-72
2022/04/12 16:10:53;;;;;;;2.57;2.10;;;22.10;50.30;;;;;;10427429;28;20306;-73
2022/04/12 16:15:54;;;;;;;2.33;1.80;;;22.00;50.60;;;;;;10431498;28;20297;-71
2022/04/12 16:20:55;;;;;;;3.03;1.80;;;22.00;50.80;;;;;;10434260;28;20302;-71
2022/04/12 16:25:55;;;;;;;4.73;2.00;;;21.90;50.70;;;;;;10427338;28;20640;-72
2022/04/12 16:30:56;;;;;;;1.83;1.60;;;21.90;51.00;;;;;;10424158;28;20769;-72
2022/04/12 16:35:56;;;;;;;2.87;1.93;;;21.90;51.60;;;;;;10439591;28;20710;-72
2022/04/12 16:40:57;;;;;;;2.90;1.97;;;21.80;51.00;;;;;;10425886;28;20238;-71
2022/04/12 16:45:58;;;;;;;4.13;1.80;;;21.60;51.00;;;;;;10440741;28;20220;-71
2022/04/12 16:50:58;;;;;;;2.33;1.77;;;21.50;51.50;;;;;;10433944;28;20231;-71
2022/04/12 16:55:59;;;;;;;4.60;1.70;;;21.40;51.70;;;;;;10440855;28;20231;-72
2022/04/12 17:00:59;;;;;;;3.70;1.90;;;21.30;51.50;;;;;;10432111;28;20674;-71
2022/04/12 17:06:01;;;;;;;3.57;1.90;;;21.30;52.00;;;;;;10431058;28;20567;-72
2022/04/12 17:11:02;;;;;;;1.80;1.50;;;21.20;51.90;;;;;;10441405;28;20776;-71
2022/04/12 17:16:05;;;;;;;3.47;1.67;;;21.00;52.00;;;;;;10434124;28;20235;-72
2022/04/12 17:21:06;;;;;;;3.73;1.80;;;20.90;52.10;;;;;;10439450;28;20281;-72
2022/04/12 17:26:07;;;;;;;2.90;1.70;;;20.80;52.50;;;;;;10440103;28;20705;-72
2022/04/12 17:31:07;;;;;;;3.73;1.77;;;20.70;53.00;;;;;;10432695;28;20306;-71
2022/04/12 17:36:09;;;;;;;4.57;1.50;;;20.60;53.10;;;;;;10437338;28;20245;-71
2022/04/12 17:41:09;;;;;;;7.77;1.80;;;20.50;53.50;;;;;;10437103;28;20267;-72
2022/04/12 17:46:10;;;;;;;3.07;1.73;;;20.30;53.80;;;;;;10439965;28;20218;-71
2022/04/12 17:51:10;;;;;;;3.43;1.53;;;20.20;54.10;;;;;;10430635;28;20244;-71
2022/04/12 17:56:11;;;;;;;3.27;1.50;;;20.10;54.60;;;;;;10432037;28;20223;-71
2022/04/12 18:01:12;;;;;;;2.50;1.90;;;19.90;54.90;;;;;;10437008;28;20225;-72
2022/04/12 18:06:13;;;;;;;3.23;1.70;;;19.80;55.50;;;;;;10432906;28;20285;-72
2022/04/12 18:11:14;;;;;;;3.03;1.70;;;19.70;56.10;;;;;;10443495;28;20254;-73
2022/04/12 18:16:15;;;;;;;3.30;1.50;;;19.60;56.30;;;;;;10437506;28;20236;-72
2022/04/12 18:21:16;;;;;;;2.43;1.40;;;19.40;56.70;;;;;;10436004;28;20233;-73
2022/04/12 18:26:17;;;;;;;4.00;1.93;;;19.30;57.30;;;;;;10439162;28;20228;-73
2022/04/12 18:31:18;;;;;;;4.23;2.90;;;19.20;57.50;;;;;;10437211;28;20251;-72
2022/04/12 18:36:19;;;;;;;2.53;1.90;;;19.10;58.00;;;;;;10433124;28;20257;-72
2022/04/12 18:41:20;;;;;;;3.90;1.97;;;19.00;58.00;;;;;;10433630;28;20287;-74
2022/04/12 18:46:25;;;;;;;3.43;1.97;;;18.90;57.90;;;;;;10433721;28;20219;-74
2022/04/12 18:51:26;;;;;;;3.47;1.87;;;18.90;58.20;;;;;;10431184;28;20231;-74
2022/04/12 18:56:30;;;;;;;5.27;2.33;;;18.80;58.30;;;;;;10426122;28;20235;-75
2022/04/12 19:01:36;;;;;;;6.33;2.50;;;18.70;58.40;;;;;;10436586;28;20231;-71
2022/04/12 19:06:37;;;;;;;4.10;2.37;;;18.70;58.70;;;;;;10437602;28;20221;-72
2022/04/12 19:11:37;;;;;;;3.83;1.80;;;18.70;58.60;;;;;;10436327;28;20706;-74
2022/04/12 19:16:38;;;;;;;3.17;1.23;;;18.60;58.60;;;;;;10437189;28;20744;-74
2022/04/12 19:21:41;;;;;;;3.30;1.30;;;18.60;58.70;;;;;;10427960;28;20254;-75
2022/04/12 19:26:47;;;;;;;2.50;1.73;;;18.50;59.00;;;;;;10430570;28;20270;-73
2022/04/12 19:32:13;;;;;;;3.73;1.43;;;18.40;59.10;;;;;;10446533;28;20564;-78
2022/04/12 19:37:17;;;;;;;1.63;1.30;;;18.40;59.00;;;;;;10440300;28;20261;-71
2022/04/12 19:42:17;;;;;;;3.27;1.70;;;18.40;59.00;;;;;;10434954;28;20925;-73
2022/04/12 19:47:18;;;;;;;3.50;1.60;;;18.30;58.90;;;;;;10423577;28;20248;-71
2022/04/12 19:52:21;;;;;;;4.43;1.50;;;18.30;58.80;;;;;;10436364;28;20222;-72
2022/04/12 19:57:25;;;;;;;2.43;1.50;;;18.20;58.60;;;;;;10429290;28;20233;-77
2022/04/12 20:02:26;;;;;;;4.93;1.57;;;18.30;58.10;;;;;;10430132;28;20218;-70
2022/04/12 20:07:26;;;;;;;2.97;1.50;;;18.20;58.30;;;;;;10433403;28;20214;-72
2022/04/12 20:12:27;;;;;;;4.23;2.10;;;18.10;57.70;;;;;;10438375;28;20253;-73
2022/04/12 20:17:28;;;;;;;2.30;1.43;;;18.10;57.60;;;;;;10428493;28;20227;-71
2022/04/12 20:22:29;;;;;;;1.50;1.30;;;18.10;57.20;;;;;;10437777;28;20209;-71
2022/04/12 20:27:30;;;;;;;3.33;1.50;;;18.00;57.30;;;;;;10433525;28;20186;-69
2022/04/12 20:32:31;;;;;;;3.27;1.83;;;17.80;57.50;;;;;;10431841;28;20761;-70
2022/04/12 20:37:31;;;;;;;2.50;1.57;;;17.60;59.50;;;;;;10451048;28;20181;-70
2022/04/12 20:42:35;;;;;;;3.33;1.77;;;17.30;59.90;;;;;;10450338;28;20223;-71
2022/04/12 20:47:41;;;;;;;3.13;1.87;;;17.00;61.60;;;;;;10429732;28;20946;-71
2022/04/12 20:52:42;;;;;;;3.13;1.80;;;16.90;60.80;;;;;;10425760;28;20197;-72
2022/04/12 20:57:42;;;;;;;2.30;1.67;;;16.90;62.20;;;;;;10429887;28;20194;-72
2022/04/12 21:02:44;;;;;;;3.77;2.63;;;16.70;63.90;;;;;;10428509;28;20191;-70
2022/04/12 21:07:50;;;;;;;2.40;2.07;;;16.60;64.70;;;;;;10430631;28;20185;-73
2022/04/12 21:12:51;;;;;;;4.77;2.87;;;16.40;65.30;;;;;;10426681;28;20244;-76
2022/04/12 21:17:52;;;;;;;3.47;2.27;;;16.30;66.00;;;;;;10442320;28;20192;-74
2022/04/12 21:23:01;;;;;;;4.57;2.10;;;16.10;68.80;;;;;;10448927;28;20189;-77
2022/04/12 21:28:05;;;;;;;4.60;3.23;;;15.90;70.00;;;;;;10455161;28;20184;-73
2022/04/12 21:33:06;;;;;;;4.03;3.07;;;15.90;69.30;;;;;;10446454;28;20228;-75
2022/04/12 21:38:07;;;;;;;5.07;2.70;;;15.80;67.70;;;;;;10453966;28;20193;-76
2022/04/12 21:43:11;;;;;;;3.33;2.20;;;15.80;67.20;;;;;;10446348;28;20186;-75
2022/04/12 21:48:12;;;;;;;2.80;2.20;;;15.70;67.50;;;;;;10455510;28;20194;-75
2022/04/12 21:53:13;;;;;;;2.67;2.20;;;15.70;66.80;;;;;;10454287;28;20218;-74
2022/04/12 21:58:14;;;;;;;4.13;3.00;;;15.80;67.30;;;;;;10456975;28;20541;-74
2022/04/12 22:03:17;;;;;;;5.97;2.80;;;15.70;68.30;;;;;;10424351;28;20197;-75
2022/04/12 22:08:18;;;;;;;2.93;2.57;;;15.50;69.80;;;;;;10439610;28;20665;-73
2022/04/12 22:13:19;;;;;;;2.73;2.10;;;15.40;70.80;;;;;;10452420;28;20772;-72
2022/04/12 22:18:23;;;;;;;3.80;2.30;;;15.30;71.00;;;;;;10446250;28;20172;-73
2022/04/12 22:23:25;;;;;;;4.30;2.23;;;15.20;71.30;;;;;;10440871;28;20240;-73
2022/04/12 22:28:25;;;;;;;5.63;2.83;;;15.20;71.30;;;;;;10435064;28;20196;-73
2022/04/12 22:33:27;;;;;;;3.20;2.50;;;15.10;71.00;;;;;;10428788;28;20213;-72
2022/04/12 22:38:28;;;;;;;2.93;2.40;;;15.20;70.70;;;;;;10433762;28;20234;-72
2022/04/12 22:43:28;;;;;;;2.53;2.00;;;15.30;70.40;;;;;;10432063;28;20324;-72
2022/04/12 22:48:30;;;;;;;3.80;2.03;;;15.30;70.50;;;;;;10433668;28;20238;-72
2022/04/12 22:53:32;;;;;;;2.73;2.47;;;15.30;70.90;;;;;;10433426;28;20208;-72
2022/04/12 22:58:33;;;;;;;3.20;2.73;;;15.30;71.50;;;;;;10433548;28;20596;-73
2022/04/12 23:03:33;;;;;;;3.77;2.70;;;15.30;71.50;;;;;;10433248;28;20280;-71
2022/04/12 23:08:34;;;;;;;3.10;2.27;;;15.40;70.90;;;;;;10432118;28;20185;-72
2022/04/12 23:13:35;;;;;;;5.17;3.27;;;15.30;72.10;;;;;;10440865;28;20562;-72
2022/04/12 23:18:36;;;;;;;2.50;2.30;;;15.30;72.10;;;;;;10431035;28;20186;-71
2022/04/12 23:23:36;;;;;;;7.63;4.20;;;15.30;74.20;;;;;;10433003;28;20371;-72
2022/04/12 23:28:40;;;;;;;6.43;3.60;;;15.20;76.90;;;;;;10432448;28;20252;-71
2022/04/12 23:33:42;;;;;;;5.10;3.30;;;15.10;76.20;;;;;;10434392;28;20252;-72
2022/04/12 23:38:42;;;;;;;9.27;6.57;;;15.10;77.90;;;;;;10428586;28;20269;-72
2022/04/12 23:43:43;;;;;;;10.10;8.17;;;15.00;78.40;;;;;;10440940;28;20763;-73
2022/04/12 23:48:47;;;;;;;12.23;10.30;;;15.00;76.90;;;;;;10435971;28;20211;-72
2022/04/12 23:53:47;;;;;;;9.90;7.70;;;15.00;78.10;;;;;;10433611;28;20557;-73
2022/04/12 23:58:48;;;;;;;9.10;5.50;;;14.80;80.70;;;;;;10436972;28;20240;-72
